Tc Majestic — 3EYC4 — position and weather

sailwx.info

Track history (hours):
 
Tides and Currents Weather Stations Pressure Air Temp Water Temp Dewpoint Dewpoint Depression Visibility Wind Speed Wind Dir Waves Ship Positions

Tc Majestic

Last reported at 2017-Nov-17 23:08 UTC. Time now 2017-Nov-22 15:04 UTC.
Position N 29°38' W 014°48'.

Length 89 m; draft 5.4 m.

Type: Cargo ship. MMSI: 355279000.

Date/timePositionNaut miles runAvg speedWind from/ knotsBaromVisibWave heightAir tempDewpointWater temp
2017-Nov-17 23:08N 29°38' W 014°48'2 8.3
2017-Nov-17 22:54N 29°36' W 014°49'48 8.6
2017-Nov-17 17:15N 28°50' W 015°06'2 9.0
2017-Nov-17 17:00N 28°48' W 015°07'5 9.1
2017-Nov-17 16:30N 28°44' W 015°09'4 9.2
2017-Nov-17 16:00N 28°39' W 015°11'5 9.2
2017-Nov-17 15:30N 28°35' W 015°12'5 9.2
2017-Nov-17 15:00N 28°31' W 015°14'5 9.3
2017-Nov-17 14:30N 28°26' W 015°16'5 9.3
2017-Nov-17 14:00N 28°22' W 015°17'5 9.2
2017-Nov-17 13:31N 28°17' W 015°19'5 9.0
2017-Nov-17 13:00N 28°13' W 015°20'5 9.2
2017-Nov-17 12:30N 28°09' W 015°21'1 2.4
2017-Nov-17 12:00N 28°08' W 015°22'3 5.5
2017-Nov-17 11:30N 28°08' W 015°25'0 0.8
2017-Nov-17 10:53N 28°09' W 015°25'0 0.0
2017-Nov-17 10:23N 28°09' W 015°25'0 0.0
2017-Nov-17 09:53N 28°09' W 015°25'0 0.0
2017-Nov-17 09:23N 28°09' W 015°25'0 0.0
2017-Nov-17 08:53N 28°09' W 015°25'0 0.0
2017-Nov-17 08:23N 28°09' W 015°25'0 0.0
2017-Nov-17 07:53N 28°09' W 015°25'0 0.0
2017-Nov-17 07:20N 28°09' W 015°25'0 0.0
2017-Nov-17 06:53N 28°09' W 015°25'0 0.0
2017-Nov-17 06:30N 28°09' W 015°25'1 3.0
2017-Nov-17 06:00N 28°07' W 015°25'2 3.8
2017-Nov-17 05:30N 28°09' W 015°23'3 6.5
2017-Nov-17 05:00N 28°06' W 015°20'0 1.0
2017-Nov-17 04:30N 28°07' W 015°21'0 0.0
2017-Nov-17 04:00N 28°07' W 015°21'1 1.2
2017-Nov-17 03:30N 28°07' W 015°21'1 2.9
2017-Nov-17 03:00N 28°05' W 015°21'4 8.3
2017-Nov-17 02:30N 28°02' W 015°19'4 8.4
2017-Nov-17 02:00N 27°58' W 015°18'4 8.4
2017-Nov-17 01:30N 27°53' W 015°18'4 8.4
2017-Nov-17 01:00N 27°49' W 015°18'  
Track history (hours):
 
Tides and Currents Weather Stations Pressure Air Temp Water Temp Dewpoint Dewpoint Depression Visibility Wind Speed Wind Dir Waves Ship Positions

Tc Majestic

Last reported at 2017-Nov-17 23:08 UTC. Time now 2017-Nov-22 15:04 UTC.
Position N 29°38' W 014°48'.

Length 89 m; draft 5.4 m.

Type: Cargo ship. MMSI: 355279000.

Date/timePositionNaut miles runAvg speedWind from/ knotsBaromVisibWave heightAir tempDewpointWater temp
2017-Nov-17 23:08N 29°38' W 014°48'2 8.3
2017-Nov-17 22:54N 29°36' W 014°49'48 8.6
2017-Nov-17 17:15N 28°50' W 015°06'2 9.0
2017-Nov-17 17:00N 28°48' W 015°07'5 9.1
2017-Nov-17 16:30N 28°44' W 015°09'4 9.2
2017-Nov-17 16:00N 28°39' W 015°11'5 9.2
2017-Nov-17 15:30N 28°35' W 015°12'5 9.2
2017-Nov-17 15:00N 28°31' W 015°14'5 9.3
2017-Nov-17 14:30N 28°26' W 015°16'5 9.3
2017-Nov-17 14:00N 28°22' W 015°17'5 9.2
2017-Nov-17 13:31N 28°17' W 015°19'5 9.0
2017-Nov-17 13:00N 28°13' W 015°20'5 9.2
2017-Nov-17 12:30N 28°09' W 015°21'1 2.4
2017-Nov-17 12:00N 28°08' W 015°22'3 5.5
2017-Nov-17 11:30N 28°08' W 015°25'0 0.8
2017-Nov-17 10:53N 28°09' W 015°25'0 0.0
2017-Nov-17 10:23N 28°09' W 015°25'0 0.0
2017-Nov-17 09:53N 28°09' W 015°25'0 0.0
2017-Nov-17 09:23N 28°09' W 015°25'0 0.0
2017-Nov-17 08:53N 28°09' W 015°25'0 0.0
2017-Nov-17 08:23N 28°09' W 015°25'0 0.0
2017-Nov-17 07:53N 28°09' W 015°25'0 0.0
2017-Nov-17 07:20N 28°09' W 015°25'0 0.0
2017-Nov-17 06:53N 28°09' W 015°25'0 0.0
2017-Nov-17 06:30N 28°09' W 015°25'1 3.0
2017-Nov-17 06:00N 28°07' W 015°25'2 3.8
2017-Nov-17 05:30N 28°09' W 015°23'3 6.5
2017-Nov-17 05:00N 28°06' W 015°20'0 1.0
2017-Nov-17 04:30N 28°07' W 015°21'0 0.0
2017-Nov-17 04:00N 28°07' W 015°21'1 1.2
2017-Nov-17 03:30N 28°07' W 015°21'1 2.9
2017-Nov-17 03:00N 28°05' W 015°21'4 8.3
2017-Nov-17 02:30N 28°02' W 015°19'4 8.4
2017-Nov-17 02:00N 27°58' W 015°18'4 8.4
2017-Nov-17 01:30N 27°53' W 015°18'4 8.4
2017-Nov-17 01:00N 27°49' W 015°18'  

Dump ship's entire track history